Time;durP1;ratioP1;P1;durP2;ratioP2;P2;SDS_P1;SDS_P2;PMS_P1;PMS_P2;Temp;Humidity;BMP_temperature;BMP_pressure;BME280_temperature;BME280_humidity;BME280_pressure;Samples;Min_cycle;Max_cycle;Signal;HPM_P1;HPM_P2
2021/06/09 00:00:11;;;;;;;3.60;3.13;;;;;;;19.08;49.72;101861.50;5050871;28;20463;-79
2021/06/09 00:02:36;;;;;;;3.80;3.45;;;;;;;18.94;49.97;101852.03;5051648;28;20404;-80
2021/06/09 00:05:04;;;;;;;7.63;3.50;;;;;;;18.85;50.39;101853.88;5053078;28;20036;-79
2021/06/09 00:07:29;;;;;;;4.35;3.33;;;;;;;18.80;50.57;101859.81;5052524;28;20389;-79
2021/06/09 00:09:55;;;;;;;6.53;4.05;;;;;;;18.78;50.50;101852.81;5052511;28;20029;-79
2021/06/09 00:12:20;;;;;;;4.75;3.00;;;;;;;18.82;50.26;101849.63;5055455;28;20029;-80
2021/06/09 00:14:45;;;;;;;5.55;3.97;;;;;;;18.72;50.71;101848.84;5054756;28;20025;-80
2021/06/09 00:17:11;;;;;;;3.65;3.35;;;;;;;18.72;50.63;101843.38;5053528;28;20392;-80
2021/06/09 00:19:36;;;;;;;5.45;4.10;;;;;;;18.58;51.02;101853.03;5054198;28;20036;-80
2021/06/09 00:22:03;;;;;;;3.70;3.40;;;;;;;18.69;51.03;101848.31;5051480;28;20024;-80
2021/06/09 00:24:28;;;;;;;6.18;4.50;;;;;;;18.58;51.41;101852.19;5052750;28;20029;-80
2021/06/09 00:26:54;;;;;;;6.00;3.85;;;;;;;18.68;50.88;101855.63;5051984;28;20025;-79
2021/06/09 00:29:21;;;;;;;4.40;4.00;;;;;;;18.65;50.78;101860.56;5053025;28;20062;-80
2021/06/09 00:31:47;;;;;;;6.93;4.60;;;;;;;18.67;50.90;101853.94;5056582;28;20467;-80
2021/06/09 00:34:12;;;;;;;6.63;4.30;;;;;;;18.67;50.98;101853.94;5055477;28;20533;-80
2021/06/09 00:36:38;;;;;;;4.93;3.88;;;;;;;18.64;51.34;101859.72;5054245;28;20107;-80
2021/06/09 00:39:05;;;;;;;6.95;3.58;;;;;;;18.63;51.23;101849.81;5053653;28;20033;-80
2021/06/09 00:41:31;;;;;;;4.50;4.10;;;;;;;18.55;51.50;101853.34;5050542;28;20033;-79
2021/06/09 00:43:57;;;;;;;11.40;4.00;;;;;;;18.52;51.56;101853.69;5050230;28;20044;-79
2021/06/09 00:46:31;;;;;;;4.43;3.75;;;;;;;18.57;51.64;101847.72;5052651;28;20037;-80
2021/06/09 00:48:56;;;;;;;5.22;4.13;;;;;;;18.46;52.10;101848.88;5056925;28;20560;-80
2021/06/09 00:51:22;;;;;;;4.30;3.53;;;;;;;18.44;52.09;101850.88;5055120;28;20074;-80
2021/06/09 00:53:50;;;;;;;5.78;4.20;;;;;;;18.27;52.51;101849.91;5052026;28;20048;-80
2021/06/09 00:56:18;;;;;;;4.88;4.20;;;;;;;18.26;52.66;101848.22;5052413;28;20388;-80
2021/06/09 00:58:45;;;;;;;5.25;3.80;;;;;;;18.22;52.86;101848.69;5049909;28;20572;-80
2021/06/09 01:01:12;;;;;;;6.78;4.57;;;;;;;18.11;53.30;101856.09;5049761;28;20029;-79
2021/06/09 01:03:39;;;;;;;4.95;3.95;;;;;;;18.22;53.12;101846.81;5053435;28;20036;-80
2021/06/09 01:06:05;;;;;;;6.32;5.43;;;;;;;18.11;53.30;101849.78;5055973;28;20389;-80
2021/06/09 01:08:36;;;;;;;5.32;4.55;;;;;;;18.14;52.99;101852.19;5052524;28;20034;-80
2021/06/09 01:11:04;;;;;;;19.30;5.20;;;;;;;18.13;52.93;101848.63;5050915;28;20112;-80
2021/06/09 01:13:31;;;;;;;6.82;4.50;;;;;;;18.10;52.78;101848.09;5049558;28;20469;-80
2021/06/09 01:15:57;;;;;;;8.43;5.00;;;;;;;18.13;52.48;101848.63;5049545;28;20393;-80
2021/06/09 01:18:23;;;;;;;6.75;5.57;;;;;;;18.15;52.40;101848.44;5049164;28;20427;-80
2021/06/09 01:20:49;;;;;;;7.18;5.38;;;;;;;18.14;52.56;101846.75;5052994;28;20032;-80
2021/06/09 01:23:14;;;;;;;5.55;4.35;;;;;;;18.06;52.74;101844.84;5052366;28;20033;-80
2021/06/09 01:25:41;;;;;;;3.95;3.58;;;;;;;18.01;52.96;101849.03;5053974;28;20079;-80
2021/06/09 01:28:07;;;;;;;9.55;4.72;;;;;;;17.81;53.43;101849.19;5050838;28;20029;-80
2021/06/09 01:30:35;;;;;;;8.10;4.60;;;;;;;17.78;53.53;101845.94;5052602;28;20028;-79
2021/06/09 01:33:00;;;;;;;5.72;4.20;;;;;;;17.73;53.44;101850.97;5049992;28;20040;-80
2021/06/09 01:35:27;;;;;;;5.40;4.53;;;;;;;17.68;53.46;101841.38;5049470;28;20033;-80
2021/06/09 01:37:52;;;;;;;6.97;5.28;;;;;;;17.74;53.46;101839.06;5050982;28;20036;-80
2021/06/09 01:40:21;;;;;;;6.47;5.47;;;;;;;17.65;53.71;101838.97;5052523;28;20075;-80
2021/06/09 01:42:48;;;;;;;5.25;4.78;;;;;;;17.63;53.95;101843.75;5052498;28;20032;-80
2021/06/09 01:45:23;;;;;;;7.65;4.97;;;;;;;17.64;54.25;101840.00;5048238;28;20029;-80
2021/06/09 01:47:49;;;;;;;7.30;5.05;;;;;;;17.63;53.81;101846.47;5049743;28;20041;-79
2021/06/09 01:50:16;;;;;;;5.32;4.80;;;;;;;17.56;54.19;101841.78;5049105;28;20036;-79
2021/06/09 01:52:42;;;;;;;8.50;5.38;;;;;;;17.47;54.32;101840.84;5048861;28;20430;-80
2021/06/09 01:55:10;;;;;;;5.07;4.57;;;;;;;17.53;54.29;101844.81;5048069;28;20498;-80
2021/06/09 01:57:36;;;;;;;6.25;5.15;;;;;;;17.45;54.44;101840.16;5054976;28;20068;-80
2021/06/09 02:00:06;;;;;;;6.88;5.70;;;;;;;17.50;54.10;101847.84;5053439;28;20076;-80
2021/06/09 02:02:32;;;;;;;5.28;4.55;;;;;;;17.52;54.04;101846.69;5050857;28;20544;-79
2021/06/09 02:04:57;;;;;;;6.30;4.57;;;;;;;17.45;54.03;101846.44;5051787;28;20064;-80
2021/06/09 02:07:23;;;;;;;6.25;5.65;;;;;;;17.33;54.45;101836.78;5050703;28;20412;-79
2021/06/09 02:09:48;;;;;;;6.40;5.50;;;;;;;17.30;54.38;101842.53;5049079;28;20074;-79
2021/06/09 02:12:14;;;;;;;5.80;5.18;;;;;;;17.37;54.24;101837.34;5050136;28;20500;-79
2021/06/09 02:14:42;;;;;;;6.90;5.43;;;;;;;17.31;54.55;101848.81;5051744;28;20029;-80
2021/06/09 02:17:10;;;;;;;9.23;5.00;;;;;;;17.36;54.35;101850.09;5053638;28;20033;-80
2021/06/09 02:19:36;;;;;;;7.15;5.88;;;;;;;17.19;54.86;101845.47;5052422;28;20035;-80
2021/06/09 02:22:03;;;;;;;6.07;5.47;;;;;;;17.24;54.56;101848.59;5050584;28;20017;-79
2021/06/09 02:24:29;;;;;;;5.78;5.20;;;;;;;17.25;54.45;101841.28;5049826;28;20028;-79
2021/06/09 02:26:56;;;;;;;7.82;5.53;;;;;;;17.34;53.92;101852.09;5048783;28;20028;-80
2021/06/09 02:29:21;;;;;;;6.88;6.03;;;;;;;17.32;53.94;101845.09;5050171;28;20527;-80
2021/06/09 02:31:51;;;;;;;5.63;4.65;;;;;;;17.37;53.67;101835.47;5054671;28;20029;-80
2021/06/09 02:34:22;;;;;;;8.32;5.10;;;;;;;17.30;54.07;101847.13;5053692;28;20033;-80
2021/06/09 02:36:52;;;;;;;6.32;5.18;;;;;;;17.25;54.19;101850.28;5052732;28;20029;-80
2021/06/09 02:39:19;;;;;;;8.40;5.90;;;;;;;17.21;54.56;101846.19;5051507;28;20629;-79
2021/06/09 02:41:46;;;;;;;9.85;5.72;;;;;;;17.25;54.60;101841.28;5048680;28;20397;-80
2021/06/09 02:44:12;;;;;;;9.02;6.25;;;;;;;17.16;54.61;101841.19;5048512;28;20033;-79
2021/06/09 02:46:46;;;;;;;6.40;5.03;;;;;;;17.14;54.74;101837.78;5049780;28;20044;-79
2021/06/09 02:49:15;;;;;;;8.18;5.25;;;;;;;17.07;55.19;101831.22;5049701;28;20031;-78
2021/06/09 02:51:44;;;;;;;9.45;4.75;;;;;;;17.10;54.94;101840.94;5051298;28;20029;-80
2021/06/09 02:54:30;;;;;;;5.68;5.15;;;;;;;17.13;54.43;101833.31;5053934;28;20479;-79
2021/06/09 02:57:14;;;;;;;7.35;5.55;;;;;;;17.16;54.47;101829.47;5049727;28;20039;-80
2021/06/09 03:00:19;;;;;;;6.72;5.57;;;;;;;17.18;54.20;101833.75;5050345;28;20036;-79
2021/06/09 03:03:17;;;;;;;5.70;4.65;;;;;;;17.20;54.24;101831.72;4987438;28;20039;-79
2021/06/09 03:05:53;;;;;;;7.43;5.57;;;;;;;17.10;54.64;101832.78;5047896;28;20496;-79
2021/06/09 03:08:24;;;;;;;6.45;5.72;;;;;;;17.11;54.69;101838.09;5050177;28;20033;-80
2021/06/09 03:11:16;;;;;;;5.80;5.30;;;;;;;17.00;54.90;101830.97;5052526;28;20074;-79
2021/06/09 03:14:01;;;;;;;6.30;4.93;;;;;;;17.07;55.10;101830.38;5052745;28;20032;-79
2021/06/09 03:16:37;;;;;;;7.65;6.13;;;;;;;17.09;54.65;101825.66;5051196;28;20029;-79
2021/06/09 03:19:10;;;;;;;6.90;6.20;;;;;;;17.14;54.81;101831.47;5048917;28;20393;-79
2021/06/09 03:21:52;;;;;;;8.70;5.85;;;;;;;17.19;54.83;101824.56;5049742;28;20112;-79
2021/06/09 03:24:30;;;;;;;6.47;5.88;;;;;;;17.16;54.98;101826.72;5049240;28;20044;-79
2021/06/09 03:26:59;;;;;;;6.38;5.78;;;;;;;17.21;54.59;101819.84;5048935;28;20032;-78
2021/06/09 03:29:46;;;;;;;9.98;6.47;;;;;;;17.15;55.16;101819.59;5052981;28;20506;-80
2021/06/09 03:32:19;;;;;;;7.65;5.72;;;;;;;17.17;54.89;101809.41;5052716;28;20041;-79
2021/06/09 03:34:50;;;;;;;7.88;6.50;;;;;;;17.17;55.06;101815.72;5051392;28;20123;-80
2021/06/09 03:37:19;;;;;;;7.22;5.88;;;;;;;17.16;55.23;101819.44;5051560;28;20098;-80
2021/06/09 03:39:46;;;;;;;7.20;6.50;;;;;;;17.18;55.45;101808.41;5053126;28;20102;-80
2021/06/09 03:42:15;;;;;;;6.85;6.15;;;;;;;17.20;55.80;101806.38;5052948;28;20041;-80
2021/06/09 03:44:45;;;;;;;9.65;6.60;;;;;;;17.19;55.85;101805.53;5051522;28;20021;-80
2021/06/09 03:47:12;;;;;;;7.25;6.55;;;;;;;17.22;55.75;101801.66;5056501;28;20524;-80
2021/06/09 03:49:39;;;;;;;7.88;6.95;;;;;;;17.23;55.81;101804.25;5054847;28;20029;-80
2021/06/09 03:52:04;;;;;;;8.18;6.88;;;;;;;17.25;55.87;101800.50;5055015;28;20102;-80
2021/06/09 03:54:33;;;;;;;7.78;7.07;;;;;;;17.30;55.73;101803.63;5054451;28;20033;-80
2021/06/09 03:57:01;;;;;;;8.73;7.05;;;;;;;17.27;55.79;101802.06;5053056;28;20098;-80
2021/06/09 03:59:28;;;;;;;8.02;7.22;;;;;;;17.26;56.35;101803.06;5053092;28;20033;-79
2021/06/09 04:01:56;;;;;;;7.03;6.25;;;;;;;17.27;56.56;101804.78;5050693;28;20047;-79
2021/06/09 04:04:21;;;;;;;7.93;7.22;;;;;;;17.25;56.72;101808.66;5050802;28;20404;-79
2021/06/09 04:06:51;;;;;;;9.48;7.15;;;;;;;17.30;57.12;101803.63;5056530;28;20031;-79
2021/06/09 04:09:22;;;;;;;8.38;6.43;;;;;;;17.28;57.25;101806.47;5056742;28;20028;-80
2021/06/09 04:11:51;;;;;;;8.82;7.22;;;;;;;17.29;56.91;101807.34;5053544;28;20025;-80
2021/06/09 04:14:20;;;;;;;8.30;6.28;;;;;;;17.34;56.79;101799.56;5054277;28;20417;-80
2021/06/09 04:16:46;;;;;;;8.50;7.25;;;;;;;17.39;57.18;101806.28;5050638;28;20025;-80
2021/06/09 04:19:14;;;;;;;10.93;7.30;;;;;;;17.40;57.39;101797.09;5052248;28;20040;-79
2021/06/09 04:21:39;;;;;;;9.48;7.05;;;;;;;17.47;57.33;101808.19;5051854;28;20485;-80
2021/06/09 04:24:05;;;;;;;10.18;7.57;;;;;;;17.47;57.49;101802.75;5056059;28;20025;-80
2021/06/09 04:26:33;;;;;;;9.52;6.50;;;;;;;17.49;57.07;101808.06;5054023;28;20374;-80
2021/06/09 04:29:01;;;;;;;7.35;6.70;;;;;;;17.53;56.83;101804.00;5054571;28;20150;-80
2021/06/09 04:31:27;;;;;;;7.85;6.22;;;;;;;17.66;56.13;101808.06;5052586;28;20040;-80
2021/06/09 04:33:56;;;;;;;11.55;7.43;;;;;;;17.72;56.17;101803.00;5053089;28;20033;-80
2021/06/09 04:36:23;;;;;;;10.23;7.60;;;;;;;17.78;56.99;101802.41;5050540;28;20384;-80
2021/06/09 04:38:49;;;;;;;12.73;8.05;;;;;;;17.78;56.92;101808.69;5052541;28;20036;-80
2021/06/09 04:41:14;;;;;;;8.00;6.50;;;;;;;17.81;56.09;101807.53;5057067;28;20033;-80
2021/06/09 04:43:40;;;;;;;7.55;6.70;;;;;;;17.84;56.38;101807.22;5053961;28;20033;-80
2021/06/09 04:46:05;;;;;;;8.23;6.38;;;;;;;17.81;56.00;101805.66;5054046;28;20029;-80
2021/06/09 04:48:31;;;;;;;6.50;5.43;;;;;;;17.91;55.01;101806.44;5050258;28;20032;-80
2021/06/09 04:50:56;;;;;;;8.75;5.28;;;;;;;17.91;54.03;101803.72;5050830;28;20135;-80
2021/06/09 04:53:22;;;;;;;5.93;5.13;;;;;;;17.91;52.87;101797.41;5050248;28;20025;-80
2021/06/09 04:55:50;;;;;;;6.50;4.88;;;;;;;17.85;51.21;101809.78;5051729;28;20524;-79
2021/06/09 04:58:18;;;;;;;6.57;3.80;;;;;;;17.95;51.05;101806.13;5050075;28;20050;-80
2021/06/09 05:00:45;;;;;;;5.20;3.08;;;;;;;18.01;49.85;101802.78;5055151;28;20029;-80
2021/06/09 05:03:10;;;;;;;3.35;3.00;;;;;;;18.04;47.18;101805.16;5054217;28;20037;-80
2021/06/09 05:05:36;;;;;;;2.85;2.55;;;;;;;17.99;46.36;101796.63;5053376;28;20039;-80
2021/06/09 05:08:01;;;;;;;3.83;2.40;;;;;;;17.99;45.50;101802.06;5051425;28;20028;-80
2021/06/09 05:10:27;;;;;;;3.85;2.40;;;;;;;18.07;42.81;101808.44;5053429;28;20472;-80
2021/06/09 05:13:02;;;;;;;3.70;2.50;;;;;;;18.16;44.51;101798.44;5051918;28;20028;-80
2021/06/09 05:15:30;;;;;;;4.60;3.42;;;;;;;18.09;45.28;101798.25;5052465;28;20045;-81
2021/06/09 05:17:57;;;;;;;4.75;3.35;;;;;;;18.13;45.15;101804.22;5051511;28;20441;-81
2021/06/09 05:20:37;;;;;;;6.63;3.83;;;;;;;18.10;44.19;101799.94;5056847;28;20446;-81
2021/06/09 05:23:08;;;;;;;7.80;3.73;;;;;;;18.14;45.12;101804.03;5052680;28;20119;-80
2021/06/09 05:25:36;;;;;;;5.13;3.60;;;;;;;18.20;43.91;101812.59;5052388;28;20291;-81
2021/06/09 05:28:03;;;;;;;4.13;2.80;;;;;;;18.19;43.73;101809.03;5051535;28;20033;-80
2021/06/09 05:30:29;;;;;;;8.40;3.58;;;;;;;18.27;44.88;101802.75;5049880;28;20025;-80
2021/06/09 05:32:56;;;;;;;7.30;4.25;;;;;;;18.25;46.20;101804.81;5050920;28;20036;-80
2021/06/09 05:35:23;;;;;;;5.13;3.38;;;;;;;18.20;43.74;101808.00;5050583;28;20071;-80
2021/06/09 05:37:49;;;;;;;4.63;2.40;;;;;;;18.21;45.60;101804.25;5054604;28;20045;-80
2021/06/09 05:40:16;;;;;;;4.28;1.98;;;;;;;18.27;42.78;101809.06;5055795;28;20074;-80
2021/06/09 05:42:43;;;;;;;3.13;1.98;;;;;;;18.22;42.87;101805.97;5053225;28;20029;-80
2021/06/09 05:45:09;;;;;;;2.65;2.20;;;;;;;18.34;44.02;101801.97;5050515;28;20033;-80
2021/06/09 05:47:44;;;;;;;6.15;2.70;;;;;;;18.38;44.40;101794.34;5051387;28;20035;-80
2021/06/09 05:50:15;;;;;;;2.55;2.20;;;;;;;18.49;44.01;101804.13;5050848;28;20481;-80
2021/06/09 05:52:40;;;;;;;6.60;3.13;;;;;;;18.48;44.30;101802.38;5050774;28;20029;-80
2021/06/09 05:55:12;;;;;;;5.97;4.63;;;;;;;18.52;44.53;101801.06;5050748;28;20044;-79
2021/06/09 05:57:37;;;;;;;6.55;3.72;;;;;;;18.60;44.91;101811.97;5053711;28;20029;-80
2021/06/09 06:00:04;;;;;;;6.10;4.07;;;;;;;18.65;45.73;101806.91;5053199;28;20021;-80
2021/06/09 06:02:30;;;;;;;5.10;3.13;;;;;;;18.63;46.74;101805.38;5044222;28;20028;-80
2021/06/09 06:04:57;;;;;;;4.53;2.75;;;;;;;18.64;44.61;101801.59;5049734;28;20120;-80
2021/06/09 06:07:22;;;;;;;1.92;1.73;;;;;;;18.68;42.91;101805.75;5040686;28;20473;-80
2021/06/09 06:09:48;;;;;;;3.45;1.35;;;;;;;18.68;41.94;101803.00;5041461;28;20056;-80
2021/06/09 06:12:13;;;;;;;4.90;1.70;;;;;;;18.68;40.75;101797.56;5044591;28;20029;-80
2021/06/09 06:14:39;;;;;;;2.00;1.58;;;;;;;18.69;42.16;101804.72;5028178;28;20028;-81
2021/06/09 06:17:04;;;;;;;3.75;1.88;;;;;;;18.79;42.55;101800.00;5049039;28;20025;-81
2021/06/09 06:19:34;;;;;;;2.40;1.42;;;;;;;18.84;41.92;101800.38;5051351;28;20029;-80
2021/06/09 06:22:00;;;;;;;6.50;1.95;;;;;;;18.89;42.24;101803.47;5027929;28;20029;-80
2021/06/09 06:24:26;;;;;;;3.33;1.58;;;;;;;18.94;41.61;101801.09;5036802;28;20051;-80
2021/06/09 06:26:52;;;;;;;4.13;1.42;;;;;;;18.97;40.58;101799.91;5045387;28;20021;-80
2021/06/09 06:29:17;;;;;;;1.48;1.17;;;;;;;19.02;41.31;101798.41;5028231;28;20439;-80
2021/06/09 06:31:46;;;;;;;3.10;1.50;;;;;;;19.09;41.04;101800.47;5027089;28;20098;-81
2021/06/09 06:34:16;;;;;;;1.65;1.23;;;;;;;19.10;41.09;101804.91;5046577;28;20473;-80
2021/06/09 06:36:42;;;;;;;1.83;1.00;;;;;;;19.11;41.81;101804.75;5045557;28;20111;-80
2021/06/09 06:39:08;;;;;;;2.50;1.25;;;;;;;19.10;40.94;101803.03;5049008;28;20428;-80
2021/06/09 06:41:39;;;;;;;2.15;1.33;;;;;;;19.03;39.64;101796.53;5049307;28;20098;-80
2021/06/09 06:44:04;;;;;;;3.55;1.10;;;;;;;19.14;40.97;101804.41;5026098;28;20111;-80
2021/06/09 06:46:30;;;;;;;4.20;1.20;;;;;;;19.13;40.30;101799.09;5029121;28;20025;-80
2021/06/09 06:48:56;;;;;;;5.43;1.38;;;;;;;19.16;38.92;101793.31;5025796;28;20037;-80
2021/06/09 06:51:25;;;;;;;4.05;1.30;;;;;;;19.27;39.31;101795.75;5042223;28;20033;-80
2021/06/09 06:53:54;;;;;;;1.85;1.30;;;;;;;19.32;40.30;101792.53;5012165;28;20028;-80
2021/06/09 06:56:20;;;;;;;2.72;1.10;;;;;;;19.21;38.86;101796.41;5045520;28;20122;-80
2021/06/09 06:58:49;;;;;;;1.00;0.90;;;;;;;19.31;38.55;101791.66;5029086;28;20120;-81
2021/06/09 07:01:21;;;;;;;2.17;1.20;;;;;;;19.40;38.13;101796.09;5044049;28;20068;-80
2021/06/09 07:03:47;;;;;;;;;;;;;;;19.45;38.37;101792.88;5048806;28;20037;-81
2021/06/09 07:06:14;;;;;;;2.55;1.10;;;;;;;19.42;38.34;101793.22;5047734;28;19924;-80
2021/06/09 07:08:39;;;;;;;1.40;1.20;;;;;;;19.47;38.07;101790.84;5027896;28;20029;-81
2021/06/09 07:11:06;;;;;;;3.83;1.10;;;;;;;19.52;38.15;101796.63;5045416;28;20503;-81
2021/06/09 07:13:32;;;;;;;1.10;1.00;;;;;;;19.50;37.32;101790.50;5049186;28;20029;-80
2021/06/09 07:16:01;;;;;;;2.58;1.40;;;;;;;19.52;37.93;101791.19;5033158;28;20171;-81
2021/06/09 07:18:28;;;;;;;4.85;1.35;;;;;;;19.60;38.86;101793.94;5054439;28;20029;-80
2021/06/09 07:20:54;;;;;;;5.20;1.40;;;;;;;19.59;38.53;101794.97;5053823;28;20041;-81
2021/06/09 07:23:19;;;;;;;2.90;1.40;;;;;;;19.63;39.35;101792.75;5051436;28;20036;-81
2021/06/09 07:25:46;;;;;;;0.90;0.90;;;;;;;19.65;38.31;101786.13;5052464;28;20082;-81
2021/06/09 07:28:13;;;;;;;2.13;1.60;;;;;;;19.65;38.34;101790.72;5051369;28;20025;-80
2021/06/09 07:30:41;;;;;;;4.05;1.30;;;;;;;19.69;38.13;101783.91;5050346;28;20036;-80
2021/06/09 07:33:09;;;;;;;1.00;0.88;;;;;;;19.74;38.04;101781.50;5031419;28;20382;-80
2021/06/09 07:35:36;;;;;;;3.20;0.95;;;;;;;19.79;38.07;101787.31;5029906;28;20140;-80
2021/06/09 07:38:10;;;;;;;2.15;0.85;;;;;;;19.72;38.48;101789.88;5050493;28;20029;-81
2021/06/09 07:40:38;;;;;;;1.65;0.95;;;;;;;19.78;37.85;101782.88;5034621;28;20032;-81
2021/06/09 07:43:10;;;;;;;1.27;0.90;;;;;;;19.82;38.42;101775.19;5051063;28;20043;-80
2021/06/09 07:45:37;;;;;;;1.40;0.90;;;;;;;19.80;38.01;101780.81;5032428;28;20040;-80
2021/06/09 07:48:06;;;;;;;1.40;1.00;;;;;;;19.88;39.17;101783.56;5049929;28;20029;-79
2021/06/09 07:50:35;;;;;;;1.50;1.27;;;;;;;19.88;38.74;101780.81;5049239;28;20392;-80
2021/06/09 07:53:06;;;;;;;2.28;1.48;;;;;;;19.83;38.33;101777.75;5049120;28;20478;-80
2021/06/09 07:55:35;;;;;;;;;;;;;;;19.84;39.33;101784.09;5050107;28;20024;-80
2021/06/09 07:58:01;;;;;;;1.75;1.30;;;;;;;19.92;39.69;101778.59;5048826;28;19979;-80
2021/06/09 08:00:27;;;;;;;4.93;1.40;;;;;;;19.95;39.41;101784.56;5032574;28;20029;-80
2021/06/09 08:02:56;;;;;;;2.60;1.33;;;;;;;19.92;38.72;101781.31;5045447;28;20040;-80
2021/06/09 08:05:23;;;;;;;2.08;1.17;;;;;;;19.98;39.12;101775.19;5052982;28;20403;-81
2021/06/09 08:07:48;;;;;;;2.38;0.90;;;;;;;19.95;38.64;101786.44;5018335;28;20035;-80
2021/06/09 08:10:14;;;;;;;3.38;1.00;;;;;;;20.02;38.67;101779.28;5030818;28;20033;-80
2021/06/09 08:12:40;;;;;;;2.05;1.00;;;;;;;20.04;39.30;101781.81;5034279;28;20037;-80
2021/06/09 08:15:07;;;;;;;1.13;1.02;;;;;;;20.10;39.92;101781.97;5051544;28;20120;-80
2021/06/09 08:17:32;;;;;;;0.85;0.80;;;;;;;20.11;40.62;101783.72;5034252;28;20033;-81
2021/06/09 08:19:58;;;;;;;1.50;0.95;;;;;;;20.04;39.76;101782.69;5050757;28;20060;-80
2021/06/09 08:22:23;;;;;;;10.55;1.17;;;;;;;20.06;40.14;101782.53;5051331;28;20045;-81
2021/06/09 08:24:49;;;;;;;3.05;0.98;;;;;;;20.13;38.98;101784.38;5033213;28;20119;-80
2021/06/09 08:27:15;;;;;;;1.17;0.98;;;;;;;20.20;39.94;101777.22;5052837;28;20037;-81
2021/06/09 08:29:41;;;;;;;1.15;1.05;;;;;;;20.26;39.33;101775.63;5052546;28;20062;-80
2021/06/09 08:32:07;;;;;;;1.30;1.20;;;;;;;20.33;38.76;101775.81;5051057;28;20033;-80
2021/06/09 08:34:32;;;;;;;3.92;1.00;;;;;;;20.31;38.81;101765.03;5032414;28;20029;-80
2021/06/09 08:36:58;;;;;;;5.38;1.20;;;;;;;20.34;39.23;101781.09;5029553;28;20025;-80
2021/06/09 08:39:26;;;;;;;0.80;0.80;;;;;;;20.35;38.58;101771.84;5047920;28;20033;-80
2021/06/09 08:41:54;;;;;;;1.40;0.80;;;;;;;20.32;38.63;101772.22;5051729;28;20020;-80
2021/06/09 08:44:20;;;;;;;1.95;0.93;;;;;;;20.35;38.12;101777.31;5028983;28;20037;-81
2021/06/09 08:46:46;;;;;;;4.50;1.13;;;;;;;20.39;37.92;101778.69;5040271;28;20144;-80
2021/06/09 08:49:12;;;;;;;1.25;0.80;;;;;;;20.51;38.38;101779.19;5049931;28;20178;-81
2021/06/09 08:51:41;;;;;;;1.45;1.02;;;;;;;20.49;36.88;101781.22;5050344;28;20051;-80
2021/06/09 08:54:08;;;;;;;1.27;0.90;;;;;;;20.54;37.07;101770.66;5048709;28;20064;-81
2021/06/09 08:56:36;;;;;;;2.40;0.80;;;;;;;20.64;37.73;101771.28;5050617;28;20025;-81
2021/06/09 08:59:01;;;;;;;1.63;0.88;;;;;;;20.61;37.59;101776.28;5031764;28;20025;-80
2021/06/09 09:01:27;;;;;;;0.93;0.93;;;;;;;20.69;37.28;101780.84;5049727;28;20488;-81
2021/06/09 09:03:53;;;;;;;1.25;0.80;;;;;;;20.77;37.02;101778.94;5049189;28;20056;-80
2021/06/09 09:06:20;;;;;;;0.85;0.85;;;;;;;20.69;36.72;101776.22;5031247;28;20032;-80
2021/06/09 09:08:46;;;;;;;1.38;1.27;;;;;;;20.80;37.13;101777.72;5027850;28;20039;-81
2021/06/09 09:11:11;;;;;;;1.48;0.95;;;;;;;20.84;36.57;101784.53;5032290;28;20108;-80
2021/06/09 09:13:37;;;;;;;1.30;1.20;;;;;;;20.83;37.01;101774.63;5029278;28;20029;-80
2021/06/09 09:16:03;;;;;;;3.17;1.10;;;;;;;20.79;37.57;101782.34;5049285;28;20029;-81
2021/06/09 09:18:38;;;;;;;2.33;1.20;;;;;;;20.80;37.20;101778.56;5031239;28;20031;-81
2021/06/09 09:21:05;;;;;;;3.22;1.20;;;;;;;20.86;37.37;101779.75;5050137;28;20504;-80
2021/06/09 09:23:30;;;;;;;2.67;1.15;;;;;;;20.94;37.96;101784.34;5049611;28;20471;-80
2021/06/09 09:25:58;;;;;;;2.22;2.03;;;;;;;21.01;38.71;101785.31;5047135;28;20392;-80
2021/06/09 09:28:30;;;;;;;1.85;1.20;;;;;;;21.04;38.88;101780.34;5030205;28;20032;-80
2021/06/09 09:31:16;;;;;;;1.75;1.25;;;;;;;21.07;39.13;101785.44;5047674;28;20036;-80
2021/06/09 09:33:42;;;;;;;1.98;1.48;;;;;;;21.09;38.89;101786.13;5047669;28;20036;-79
2021/06/09 09:36:27;;;;;;;1.88;1.67;;;;;;;21.12;39.26;101776.72;5028722;28;20052;-80
2021/06/09 09:38:59;;;;;;;1.90;1.45;;;;;;;21.22;38.81;101773.75;5048164;28;20473;-80
2021/06/09 09:41:29;;;;;;;1.80;1.58;;;;;;;21.25;39.42;101776.97;5048082;28;20037;-80
2021/06/09 09:44:00;;;;;;;6.10;1.70;;;;;;;21.32;38.91;101783.41;5029234;28;20492;-80
2021/06/09 09:46:44;;;;;;;3.55;1.65;;;;;;;21.36;38.51;101781.19;5047383;28;20101;-80
2021/06/09 09:49:13;;;;;;;2.72;1.50;;;;;;;21.38;38.88;101779.13;5025675;28;20033;-80
2021/06/09 09:51:42;;;;;;;2.03;1.55;;;;;;;21.30;38.92;101774.56;5045873;28;20469;-80
2021/06/09 09:54:08;;;;;;;1.38;1.27;;;;;;;21.39;37.82;101779.97;5030555;28;20032;-80
2021/06/09 09:56:38;;;;;;;1.55;1.42;;;;;;;21.39;37.12;101778.09;5045968;28;20544;-80
2021/06/09 09:59:23;;;;;;;1.93;1.33;;;;;;;21.50;37.21;101774.09;5047389;28;20029;-80
2021/06/09 10:01:52;;;;;;;2.08;1.38;;;;;;;21.51;37.41;101775.78;5030676;28;20029;-80
2021/06/09 10:04:28;;;;;;;2.42;1.80;;;;;;;21.56;37.28;101776.94;5025099;28;20060;-80
2021/06/09 10:06:55;;;;;;;2.00;1.55;;;;;;;21.65;36.21;101774.16;5039745;28;20445;-80
2021/06/09 10:09:34;;;;;;;1.00;0.95;;;;;;;21.69;36.53;101779.06;5047915;28;20065;-80
2021/06/09 10:12:08;;;;;;;1.40;1.02;;;;;;;21.68;35.58;101771.03;5031576;28;20032;-80
2021/06/09 10:14:50;;;;;;;1.08;0.98;;;;;;;21.75;35.92;101772.00;5046911;28;20067;-80
2021/06/09 10:17:18;;;;;;;4.85;1.50;;;;;;;21.68;37.88;101766.41;5028964;28;20344;-80
2021/06/09 10:19:58;;;;;;;1.67;1.13;;;;;;;21.72;37.72;101766.91;5027220;28;20422;-80
2021/06/09 10:22:32;;;;;;;1.73;1.20;;;;;;;21.75;37.10;101769.25;5046485;28;20067;-80
2021/06/09 10:25:06;;;;;;;9.10;1.20;;;;;;;21.85;37.76;101771.75;5047066;28;20037;-80
2021/06/09 10:27:34;;;;;;;2.85;0.98;;;;;;;21.98;36.53;101769.25;5046166;28;20025;-80
2021/06/09 10:30:00;;;;;;;0.98;0.98;;;;;;;21.99;35.91;101770.94;5045818;28;20484;-80
2021/06/09 10:32:27;;;;;;;1.25;1.15;;;;;;;22.00;35.55;101768.00;5044316;28;20025;-81
2021/06/09 10:34:53;;;;;;;2.70;1.52;;;;;;;21.99;35.72;101766.31;5028244;28;20433;-80
2021/06/09 10:37:18;;;;;;;1.10;1.00;;;;;;;21.98;36.09;101769.25;5045193;28;20024;-80
2021/06/09 10:39:44;;;;;;;4.78;1.00;;;;;;;21.97;35.81;101779.31;5047789;28;20436;-79
2021/06/09 10:42:16;;;;;;;1.05;1.00;;;;;;;22.05;35.08;101775.66;5046388;28;20460;-80
2021/06/09 10:44:46;;;;;;;1.83;0.80;;;;;;;22.11;34.77;101774.91;5046570;28;20048;-80
2021/06/09 10:47:20;;;;;;;1.92;0.82;;;;;;;22.06;34.07;101766.41;5046789;28;20143;-80
2021/06/09 10:49:49;;;;;;;1.33;0.73;;;;;;;22.12;33.67;101775.78;5044061;28;20025;-80
2021/06/09 10:52:18;;;;;;;0.80;0.80;;;;;;;22.18;34.18;101773.16;5046714;28;20380;-80
2021/06/09 10:54:45;;;;;;;1.42;0.90;;;;;;;22.18;34.94;101772.31;5047669;28;20432;-81
2021/06/09 10:57:12;;;;;;;1.33;0.63;;;;;;;22.15;34.77;101769.91;5049342;28;20028;-81
2021/06/09 11:00:08;;;;;;;1.42;1.02;;;;;;;22.19;32.47;101763.03;5032563;28;20029;-81
2021/06/09 11:02:34;;;;;;;2.97;0.80;;;;;;;22.22;33.38;101760.81;5043558;28;20065;-81
2021/06/09 11:05:07;;;;;;;4.47;0.90;;;;;;;22.21;33.56;101764.56;5032214;28;20025;-79
2021/06/09 11:07:39;;;;;;;2.47;0.88;;;;;;;22.17;34.52;101760.50;5049879;28;20550;-81
2021/06/09 11:10:08;;;;;;;1.48;1.05;;;;;;;22.29;35.71;101751.84;5047834;28;20068;-80
2021/06/09 11:12:45;;;;;;;5.53;1.20;;;;;;;22.36;34.91;101759.09;5050825;28;20037;-80
2021/06/09 11:15:14;;;;;;;6.72;1.05;;;;;;;22.51;35.73;101755.50;5033101;28;20052;-80
2021/06/09 11:17:47;;;;;;;5.25;0.93;;;;;;;22.62;35.10;101750.41;5050477;28;20178;-80
2021/06/09 11:20:37;;;;;;;2.15;0.90;;;;;;;22.64;33.33;101761.16;5026818;28;20072;-81
2021/06/09 11:23:09;;;;;;;3.60;1.38;;;;;;;22.62;34.16;101757.75;5024212;28;20393;-79
2021/06/09 11:25:43;;;;;;;2.03;1.33;;;;;;;22.59;33.77;101763.63;5047295;28;20078;-80
2021/06/09 11:28:15;;;;;;;3.42;1.80;;;;;;;22.63;33.95;101756.75;5026793;28;20370;-79
2021/06/09 11:30:41;;;;;;;1.38;1.00;;;;;;;22.68;33.89;101749.63;5039191;28;20071;-79